Terminal Aerodrome Forecast
Issued by NWS

Home | Current Version | Previous Version | Text Only | Print | Product List | Glossary On
Versions: 1 2 3 4 5 6 7 8 9 10 11 12 13 14 15 16 17 18 19 20 21 22 23 24 25 26 27 28 29 30 31 32 33 34 35 36 37 38 39 40 41 42 43 44 45 46 47 48 49 50
352
FTUS43 KMKX 281732
TAFUES
TAF
KUES 281732Z 2818/2918 03006KT P6SM FEW030
     FM282000 03006KT P6SM SCT040
     FM290200 04004KT 5SM BR FEW025
     FM290700 05005KT 1 1/2SM BR FEW025
     FM290900 05005KT 3SM BR SCT030
     FM291100 06005KT 2SM BR SCT020
     FM291200 06005KT 3SM BR BKN015
     FM291500 07007KT 4SM BR BKN025=

USA.gov is the U.S. government's official web portal to all federal, state and local government web resources and services.